createdAt,value
2022-10-27T00:00:54.183Z,10.40
2022-10-27T00:03:21.682Z,10.40
2022-10-27T00:05:48.983Z,10.40
2022-10-27T00:08:18.123Z,10.40
2022-10-27T00:10:45.766Z,10.40
2022-10-27T00:13:14.108Z,10.40
2022-10-27T00:15:41.690Z,10.40
2022-10-27T00:18:12.249Z,10.50
2022-10-27T00:20:39.651Z,10.40
2022-10-27T00:23:06.502Z,10.40
2022-10-27T00:25:33.416Z,10.40
2022-10-27T00:28:00.351Z,10.40
2022-10-27T00:30:27.228Z,10.40
2022-10-27T00:32:54.840Z,10.40
2022-10-27T00:35:22.059Z,10.40
2022-10-27T00:37:49.159Z,10.40
2022-10-27T00:40:16.429Z,10.40
2022-10-27T00:42:43.308Z,10.40
2022-10-27T00:45:10.323Z,10.40
2022-10-27T00:47:37.857Z,10.40
2022-10-27T00:50:09.051Z,10.40
2022-10-27T00:52:59.984Z,10.40
2022-10-27T00:55:36.092Z,10.40
2022-10-27T00:58:07.748Z,10.40
2022-10-27T01:00:37.348Z,10.40
2022-10-27T01:03:07.094Z,10.50
2022-10-27T01:05:35.236Z,10.50
2022-10-27T01:08:05.097Z,10.50
2022-10-27T01:10:32.110Z,10.60
2022-10-27T01:13:00.215Z,10.50
2022-10-27T01:15:50.460Z,10.60
2022-10-27T01:18:35.395Z,10.50
2022-10-27T01:21:02.229Z,10.50
2022-10-27T01:24:08.848Z,10.50
2022-10-27T01:26:48.524Z,10.50
2022-10-27T01:30:03.048Z,10.50
2022-10-27T01:32:59.485Z,10.50
2022-10-27T01:35:47.964Z,10.50
2022-10-27T01:38:42.299Z,10.50
2022-10-27T01:41:24.669Z,10.60
2022-10-27T01:43:54.829Z,10.60
2022-10-27T01:46:22.007Z,10.50
2022-10-27T01:48:49.288Z,10.50
2022-10-27T01:51:16.273Z,10.50
2022-10-27T01:53:51.541Z,10.50
2022-10-27T01:56:31.149Z,10.50
2022-10-27T01:59:27.068Z,10.50
2022-10-27T02:02:14.470Z,10.40
2022-10-27T02:04:51.908Z,10.40
2022-10-27T02:07:21.920Z,10.40
2022-10-27T02:10:09.399Z,10.40
2022-10-27T02:12:38.638Z,10.40
2022-10-27T02:15:15.171Z,10.40
2022-10-27T02:17:43.739Z,10.30
2022-10-27T02:20:21.001Z,10.30
2022-10-27T02:22:51.604Z,10.30
2022-10-27T02:25:22.428Z,10.30
2022-10-27T02:27:52.160Z,10.30
2022-10-27T02:30:19.024Z,10.30
2022-10-27T02:32:47.485Z,10.30
2022-10-27T02:35:16.180Z,10.30
2022-10-27T02:37:45.342Z,10.30
2022-10-27T02:40:12.429Z,10.20
2022-10-27T02:42:39.411Z,10.20
2022-10-27T02:45:06.774Z,10.20
2022-10-27T02:47:33.640Z,10.20
2022-10-27T02:50:00.736Z,10.20
2022-10-27T02:52:27.608Z,10.20
2022-10-27T02:54:54.539Z,10.20
2022-10-27T02:57:21.403Z,10.20
2022-10-27T02:59:52.621Z,10.20
2022-10-27T03:02:23.307Z,10.30
2022-10-27T03:04:51.106Z,10.30
2022-10-27T03:07:17.969Z,10.20
2022-10-27T03:09:44.823Z,10.20
2022-10-27T03:12:11.748Z,10.20
2022-10-27T03:14:38.608Z,10.20
2022-10-27T03:17:05.539Z,10.20
2022-10-27T03:19:32.395Z,10.20
2022-10-27T03:21:59.195Z,10.20
2022-10-27T03:24:26.114Z,10.20
2022-10-27T03:26:53.076Z,10.20
2022-10-27T03:29:20.027Z,10.20
2022-10-27T03:31:46.890Z,10.20
2022-10-27T03:34:15.694Z,10.20
2022-10-27T03:36:44.464Z,10.20
2022-10-27T03:39:11.352Z,10.30
2022-10-27T03:41:38.198Z,10.20
2022-10-27T03:44:05.360Z,10.20
2022-10-27T03:46:32.224Z,10.20
2022-10-27T03:48:59.105Z,10.20
2022-10-27T03:51:26.979Z,10.20
2022-10-27T03:53:53.821Z,10.20
2022-10-27T03:56:20.690Z,10.20
2022-10-27T03:58:47.547Z,10.20
2022-10-27T04:01:14.573Z,10.20
2022-10-27T04:03:41.585Z,10.30
2022-10-27T04:06:08.451Z,10.30
2022-10-27T04:08:35.372Z,10.20
2022-10-27T04:11:02.224Z,10.20
2022-10-27T04:13:30.809Z,10.20
2022-10-27T04:16:01.382Z,10.20
2022-10-27T04:18:28.472Z,10.20
2022-10-27T04:20:55.349Z,10.20
2022-10-27T04:23:22.180Z,10.10
2022-10-27T04:25:49.036Z,10.10
2022-10-27T04:28:15.982Z,10.10
2022-10-27T04:30:42.936Z,10.20
2022-10-27T04:33:09.776Z,10.20
2022-10-27T04:35:36.626Z,10.20
2022-10-27T04:38:03.667Z,10.10
2022-10-27T04:40:30.529Z,10.10
2022-10-27T04:42:57.405Z,10.10
2022-10-27T04:45:24.583Z,10.10
2022-10-27T04:47:51.873Z,10.10
2022-10-27T04:50:19.019Z,10.10
2022-10-27T04:52:59.092Z,10.10
2022-10-27T04:55:26.908Z,10.10
2022-10-27T04:57:53.948Z,10.10
2022-10-27T05:00:21.868Z,10.10
2022-10-27T05:02:59.370Z,10.10
2022-10-27T05:05:28.744Z,10.10
2022-10-27T05:07:58.016Z,10.10
2022-10-27T05:10:25.527Z,10.10
2022-10-27T05:12:52.673Z,10.10
2022-10-27T05:15:20.278Z,10.10
2022-10-27T05:17:47.211Z,10.10
2022-10-27T05:20:15.024Z,10.10
2022-10-27T05:22:41.957Z,10.10
2022-10-27T05:25:10.176Z,10.10
2022-10-27T05:27:38.119Z,10.10
2022-10-27T05:30:06.149Z,10.10
2022-10-27T05:32:33.410Z,10.10
2022-10-27T05:35:00.314Z,10.10
2022-10-27T05:37:27.211Z,10.20
2022-10-27T05:39:54.042Z,10.10
2022-10-27T05:42:20.996Z,10.20
2022-10-27T05:44:47.911Z,10.20
2022-10-27T05:47:14.801Z,10.20
2022-10-27T05:49:41.644Z,10.20
2022-10-27T05:52:08.559Z,10.20
2022-10-27T05:54:35.453Z,10.20
2022-10-27T05:57:02.315Z,10.30
2022-10-27T05:59:29.205Z,10.30
2022-10-27T06:01:56.275Z,10.30
2022-10-27T06:04:23.267Z,10.30
2022-10-27T06:06:50.103Z,10.30
2022-10-27T06:09:16.979Z,10.30
2022-10-27T06:11:43.828Z,10.30
2022-10-27T06:14:10.736Z,10.30
2022-10-27T06:16:37.588Z,10.40
2022-10-27T06:19:04.559Z,10.40
2022-10-27T06:21:31.412Z,10.40
2022-10-27T06:23:58.325Z,10.40
2022-10-27T06:26:25.273Z,10.50
2022-10-27T06:28:52.260Z,10.50
2022-10-27T06:31:22.279Z,10.50
2022-10-27T06:33:51.728Z,10.50
2022-10-27T06:36:18.646Z,10.50
2022-10-27T06:38:47.265Z,10.60
2022-10-27T06:41:15.384Z,10.60
2022-10-27T06:44:02.435Z,10.60
2022-10-27T06:46:29.286Z,10.70
2022-10-27T06:48:56.226Z,10.70
2022-10-27T06:51:23.184Z,10.70
2022-10-27T06:53:50.032Z,10.80
2022-10-27T06:56:19.118Z,10.80
2022-10-27T06:58:54.093Z,10.90
2022-10-27T07:01:24.322Z,10.90
2022-10-27T07:03:51.540Z,10.90
2022-10-27T07:06:18.411Z,10.90
2022-10-27T07:08:45.335Z,11.00
2022-10-27T07:11:12.246Z,10.90
2022-10-27T07:13:39.114Z,10.90
2022-10-27T07:16:06.467Z,11.00
2022-10-27T07:18:33.839Z,11.00
2022-10-27T07:21:01.301Z,11.00
2022-10-27T07:23:28.147Z,11.00
2022-10-27T07:25:55.025Z,11.10
2022-10-27T07:28:21.884Z,11.10
2022-10-27T07:30:48.951Z,11.10
2022-10-27T07:33:15.944Z,11.20
2022-10-27T07:35:42.854Z,11.20
2022-10-27T07:38:09.704Z,11.30
2022-10-27T07:40:36.750Z,11.30
2022-10-27T07:43:07.968Z,11.40
2022-10-27T07:45:40.369Z,11.40
2022-10-27T07:48:11.845Z,11.50
2022-10-27T07:50:39.136Z,11.50
2022-10-27T07:53:16.574Z,11.50
2022-10-27T07:55:43.661Z,11.60
2022-10-27T07:58:18.321Z,11.60
2022-10-27T08:00:47.555Z,11.60
2022-10-27T08:03:23.054Z,11.70
2022-10-27T08:05:50.068Z,11.70
2022-10-27T08:08:17.118Z,11.70
2022-10-27T08:10:45.273Z,11.70
2022-10-27T08:13:12.996Z,11.80
2022-10-27T08:15:41.304Z,11.90
2022-10-27T08:18:09.768Z,11.90
2022-10-27T08:20:42.316Z,12.00
2022-10-27T08:23:14.384Z,12.10
2022-10-27T08:25:41.934Z,12.10
2022-10-27T08:28:15.711Z,12.20
2022-10-27T08:30:50.696Z,12.30
2022-10-27T08:33:19.128Z,12.30
2022-10-27T08:35:46.044Z,12.40
2022-10-27T08:38:15.078Z,12.40
2022-10-27T08:40:57.575Z,12.40
2022-10-27T08:44:00.125Z,12.30
2022-10-27T08:46:42.164Z,12.40
2022-10-27T08:49:33.209Z,12.50
2022-10-27T08:52:26.970Z,12.50
2022-10-27T08:55:00.289Z,12.60
2022-10-27T09:00:12.141Z,12.70
2022-10-27T09:03:12.549Z,12.80
2022-10-27T09:05:57.503Z,12.90
2022-10-27T09:08:30.416Z,13.00
2022-10-27T09:11:21.461Z,13.10
2022-10-27T09:14:10.480Z,13.20
2022-10-27T09:17:03.542Z,13.30
2022-10-27T09:19:38.763Z,13.40
2022-10-27T09:22:12.320Z,13.40
2022-10-27T09:24:39.187Z,13.50
2022-10-27T09:27:07.398Z,13.60
2022-10-27T09:29:37.519Z,13.70
2022-10-27T09:32:20.108Z,13.70
2022-10-27T09:34:58.316Z,13.80
2022-10-27T09:37:28.396Z,13.80
2022-10-27T09:39:58.056Z,13.80
2022-10-27T09:42:26.945Z,13.80
2022-10-27T09:45:00.661Z,13.80
2022-10-27T09:47:32.132Z,13.80
2022-10-27T09:50:00.295Z,13.80
2022-10-27T09:52:44.475Z,13.80
2022-10-27T09:55:12.230Z,13.70
2022-10-27T09:57:41.817Z,13.70
2022-10-27T10:00:24.508Z,13.60
2022-10-27T10:05:34.388Z,13.70
2022-10-27T10:08:19.688Z,13.90
2022-10-27T10:10:57.269Z,14.10
2022-10-27T10:13:25.471Z,14.30
2022-10-27T10:16:10.205Z,14.30
2022-10-27T10:18:38.785Z,14.50
2022-10-27T10:21:08.291Z,14.50
2022-10-27T10:23:48.761Z,14.60
2022-10-27T10:26:17.944Z,14.70
2022-10-27T10:28:45.930Z,14.70
2022-10-27T10:31:16.159Z,14.70
2022-10-27T10:33:47.002Z,14.70
2022-10-27T10:36:25.769Z,14.70
2022-10-27T10:38:57.595Z,14.70
2022-10-27T10:41:25.837Z,14.60
2022-10-27T10:44:11.266Z,14.60
2022-10-27T10:46:55.837Z,14.70
2022-10-27T10:49:25.939Z,14.70
2022-10-27T10:51:55.858Z,14.70
2022-10-27T10:54:34.238Z,14.60
2022-10-27T10:57:02.149Z,14.60
2022-10-27T10:59:31.509Z,14.60
2022-10-27T11:02:17.127Z,14.50
2022-10-27T11:04:47.492Z,14.50
2022-10-27T11:07:33.713Z,14.50
2022-10-27T11:10:23.886Z,14.50
2022-10-27T11:13:02.043Z,14.60
2022-10-27T11:15:40.252Z,14.60
2022-10-27T11:18:26.674Z,14.70
2022-10-27T11:21:02.134Z,15.00
2022-10-27T11:23:40.266Z,15.10
2022-10-27T11:26:07.601Z,15.30
2022-10-27T11:29:13.622Z,15.50
2022-10-27T11:31:49.470Z,15.30
2022-10-27T11:34:24.441Z,15.20
2022-10-27T11:36:59.676Z,15.00
2022-10-27T11:39:29.569Z,14.90
2022-10-27T11:42:19.352Z,14.80
2022-10-27T11:45:15.407Z,14.80
2022-10-27T11:48:04.283Z,14.80
2022-10-27T11:51:06.877Z,14.80
2022-10-27T11:53:37.562Z,14.80
2022-10-27T11:56:25.456Z,14.90
2022-10-27T11:59:04.486Z,15.00
2022-10-27T12:02:09.171Z,15.00
2022-10-27T12:04:54.049Z,15.10
2022-10-27T12:07:53.876Z,15.00
2022-10-27T12:10:39.689Z,15.10
2022-10-27T12:13:13.213Z,15.20
2022-10-27T12:15:56.640Z,15.20
2022-10-27T12:18:38.338Z,15.20
2022-10-27T12:21:23.492Z,15.20
2022-10-27T12:24:16.666Z,15.20
2022-10-27T12:26:52.079Z,15.30
2022-10-27T12:29:21.051Z,15.30
2022-10-27T12:32:06.918Z,15.20
2022-10-27T12:34:44.943Z,15.20
2022-10-27T12:37:39.674Z,15.30
2022-10-27T12:40:27.510Z,15.20
2022-10-27T12:43:12.078Z,15.20
2022-10-27T12:46:06.465Z,15.20
2022-10-27T12:48:48.134Z,15.10
2022-10-27T12:51:22.661Z,14.90
2022-10-27T12:54:31.391Z,14.80
2022-10-27T12:57:15.667Z,14.60
2022-10-27T12:59:48.276Z,14.50
2022-10-27T13:02:16.903Z,14.30
2022-10-27T13:04:52.809Z,14.20
2022-10-27T13:07:38.432Z,14.20
2022-10-27T13:10:50.026Z,14.20
2022-10-27T13:13:16.878Z,14.20
2022-10-27T13:16:14.409Z,14.10
2022-10-27T13:18:50.049Z,14.20
2022-10-27T13:21:40.263Z,14.20
2022-10-27T13:24:27.726Z,14.20
2022-10-27T13:27:34.076Z,14.10
2022-10-27T13:30:21.545Z,14.10
2022-10-27T13:32:48.414Z,14.10
2022-10-27T13:35:15.372Z,14.10
2022-10-27T13:38:09.706Z,14.10
2022-10-27T13:40:38.557Z,14.20
2022-10-27T13:43:23.861Z,14.20
2022-10-27T13:45:52.775Z,14.30
2022-10-27T13:48:19.647Z,14.30
2022-10-27T13:50:57.095Z,14.20
2022-10-27T13:53:24.271Z,14.20
2022-10-27T13:55:51.155Z,14.20
2022-10-27T13:58:26.955Z,14.20
2022-10-27T14:01:13.656Z,14.10
2022-10-27T14:04:05.537Z,14.10
2022-10-27T14:06:36.754Z,14.00
2022-10-27T14:09:29.354Z,14.00
2022-10-27T14:11:59.670Z,13.90
2022-10-27T14:14:29.427Z,13.90
2022-10-27T14:16:59.929Z,13.80
2022-10-27T14:19:32.079Z,13.80
2022-10-27T14:21:59.656Z,13.70
2022-10-27T14:24:50.531Z,13.60
2022-10-27T14:27:20.142Z,13.60
2022-10-27T14:29:47.057Z,13.50
2022-10-27T14:32:25.251Z,13.40
2022-10-27T14:34:52.712Z,13.30
2022-10-27T14:37:28.442Z,13.30
2022-10-27T14:39:57.363Z,13.20
2022-10-27T14:42:29.840Z,13.10
2022-10-27T14:45:16.515Z,13.10
2022-10-27T14:47:49.763Z,13.00
2022-10-27T14:50:29.905Z,13.00
2022-10-27T14:53:01.529Z,13.00
2022-10-27T14:55:38.525Z,12.90
2022-10-27T14:58:06.581Z,12.90
2022-10-27T15:00:35.016Z,12.90
2022-10-27T15:03:09.526Z,12.80
2022-10-27T15:05:46.450Z,12.80
2022-10-27T15:08:19.343Z,12.80
2022-10-27T15:10:49.613Z,12.80
2022-10-27T15:13:22.233Z,12.80
2022-10-27T15:15:50.616Z,12.80
2022-10-27T15:20:50.047Z,12.70
2022-10-27T15:23:17.672Z,12.70
2022-10-27T15:25:50.447Z,12.70
2022-10-27T15:28:27.796Z,12.60
2022-10-27T15:30:55.399Z,12.60
2022-10-27T15:33:28.151Z,12.50
2022-10-27T15:35:56.191Z,12.50
2022-10-27T15:38:28.226Z,12.40
2022-10-27T15:41:17.303Z,12.40
2022-10-27T15:44:03.496Z,12.40
2022-10-27T15:46:35.722Z,12.50
2022-10-27T15:49:02.583Z,12.50
2022-10-27T15:51:58.087Z,12.50
2022-10-27T15:54:37.617Z,12.60
2022-10-27T15:57:25.876Z,12.60
2022-10-27T16:00:13.851Z,12.70
2022-10-27T16:02:51.157Z,12.70
2022-10-27T16:05:30.321Z,12.60
2022-10-27T16:07:58.502Z,12.60
2022-10-27T16:10:27.041Z,12.70
2022-10-27T16:12:55.672Z,12.70
2022-10-27T16:15:25.580Z,12.70
2022-10-27T16:17:55.595Z,12.70
2022-10-27T16:20:28.378Z,12.60
2022-10-27T16:22:56.398Z,12.60
2022-10-27T16:25:32.222Z,12.60
2022-10-27T16:28:02.653Z,12.60
2022-10-27T16:30:29.783Z,12.60
2022-10-27T16:33:05.423Z,12.60
2022-10-27T16:35:32.395Z,12.60
2022-10-27T16:38:01.147Z,12.60
2022-10-27T16:40:28.205Z,12.60
2022-10-27T16:42:58.661Z,12.60
2022-10-27T16:45:25.570Z,12.60
2022-10-27T16:47:53.102Z,12.60
2022-10-27T16:50:20.769Z,12.60
2022-10-27T16:52:56.987Z,12.60
2022-10-27T16:55:24.350Z,12.60
2022-10-27T16:57:55.134Z,12.70
2022-10-27T17:00:22.268Z,12.70
2022-10-27T17:02:50.954Z,12.70
2022-10-27T17:05:17.876Z,12.70
2022-10-27T17:07:48.202Z,12.70
2022-10-27T17:10:16.787Z,12.70
2022-10-27T17:12:44.087Z,12.70
2022-10-27T17:15:11.107Z,12.80
2022-10-27T17:17:37.972Z,12.80
2022-10-27T17:20:05.242Z,12.80
2022-10-27T17:22:32.125Z,12.80
2022-10-27T17:24:58.972Z,12.80
2022-10-27T17:27:25.819Z,12.80
2022-10-27T17:29:52.733Z,12.80
2022-10-27T17:32:19.598Z,12.80
2022-10-27T17:34:46.424Z,12.90
2022-10-27T17:37:13.296Z,12.90
2022-10-27T17:39:40.129Z,12.90
2022-10-27T17:42:07.035Z,12.90
2022-10-27T17:44:33.875Z,12.90
2022-10-27T17:47:00.945Z,13.00
2022-10-27T17:49:27.880Z,12.90
2022-10-27T17:51:54.801Z,12.90
2022-10-27T17:54:21.780Z,12.90
2022-10-27T17:56:48.681Z,12.90
2022-10-27T17:59:16.478Z,12.90
2022-10-27T18:01:44.038Z,12.90
2022-10-27T18:04:12.670Z,12.90
2022-10-27T18:06:40.713Z,12.90
2022-10-27T18:09:08.240Z,12.90
2022-10-27T18:11:37.751Z,12.90
2022-10-27T18:14:10.263Z,12.90
2022-10-27T18:16:37.243Z,12.90
2022-10-27T18:19:09.705Z,12.90
2022-10-27T18:21:39.153Z,12.90
2022-10-27T18:24:07.263Z,12.90
2022-10-27T18:26:36.267Z,12.90
2022-10-27T18:29:04.077Z,12.90
2022-10-27T18:31:38.834Z,12.90
2022-10-27T18:34:07.803Z,12.90
2022-10-27T18:36:35.645Z,12.90
2022-10-27T18:39:14.154Z,12.80
2022-10-27T18:41:43.853Z,12.80
2022-10-27T18:44:11.116Z,12.80
2022-10-27T18:46:38.727Z,12.80
2022-10-27T18:49:09.426Z,12.80
2022-10-27T18:51:50.634Z,12.80
2022-10-27T18:54:17.493Z,12.90
2022-10-27T18:56:44.370Z,12.80
2022-10-27T18:59:13.291Z,12.90
2022-10-27T19:01:42.111Z,12.90
2022-10-27T19:04:09.538Z,12.90
2022-10-27T19:06:36.941Z,12.90
2022-10-27T19:09:04.433Z,12.80
2022-10-27T19:11:33.845Z,12.90
2022-10-27T19:14:02.309Z,12.90
2022-10-27T19:16:32.532Z,12.80
2022-10-27T19:19:00.157Z,12.80
2022-10-27T19:21:28.477Z,12.80
2022-10-27T19:23:57.412Z,12.80
2022-10-27T19:26:26.878Z,12.80
2022-10-27T19:28:55.359Z,12.80
2022-10-27T19:31:25.109Z,12.80
2022-10-27T19:33:52.471Z,12.80
2022-10-27T19:36:22.528Z,12.80
2022-10-27T19:38:50.219Z,12.80
2022-10-27T19:41:20.230Z,12.70
2022-10-27T19:43:49.631Z,12.70
2022-10-27T19:46:17.648Z,12.70
2022-10-27T19:48:44.572Z,12.70
2022-10-27T19:51:20.241Z,12.70
2022-10-27T19:53:47.910Z,12.70
2022-10-27T19:56:16.205Z,12.70
2022-10-27T19:58:43.548Z,12.70
2022-10-27T20:01:18.573Z,12.60
2022-10-27T20:03:45.649Z,12.60
2022-10-27T20:06:12.613Z,12.60
2022-10-27T20:08:41.679Z,12.60
2022-10-27T20:11:17.284Z,12.60
2022-10-27T20:13:46.760Z,12.60
2022-10-27T20:16:16.102Z,12.50
2022-10-27T20:18:43.844Z,12.50
2022-10-27T20:21:11.263Z,12.40
2022-10-27T20:23:38.286Z,12.40
2022-10-27T20:26:28.076Z,12.40
2022-10-27T20:28:53.795Z,12.40
2022-10-27T20:31:20.679Z,12.30
2022-10-27T20:33:47.527Z,12.30
2022-10-27T20:36:16.546Z,12.30
2022-10-27T20:38:44.430Z,12.30
2022-10-27T20:41:30.799Z,12.30
2022-10-27T20:44:00.039Z,12.30
2022-10-27T20:46:29.238Z,12.30
2022-10-27T20:48:57.661Z,12.30
2022-10-27T20:51:26.647Z,12.20
2022-10-27T20:53:53.769Z,12.20
2022-10-27T20:56:26.289Z,12.20
2022-10-27T20:58:53.330Z,12.20
2022-10-27T21:01:29.317Z,12.10
2022-10-27T21:04:04.936Z,12.10
2022-10-27T21:06:34.651Z,12.10
2022-10-27T21:09:03.357Z,12.10
2022-10-27T21:11:30.542Z,12.10
2022-10-27T21:14:00.002Z,12.10
2022-10-27T21:16:27.956Z,12.10
2022-10-27T21:18:56.790Z,12.10
2022-10-27T21:21:25.780Z,12.10
2022-10-27T21:23:52.824Z,12.10
2022-10-27T21:26:21.357Z,12.10
2022-10-27T21:28:52.906Z,12.10
2022-10-27T21:31:21.602Z,12.10
2022-10-27T21:33:48.705Z,12.10
2022-10-27T21:36:15.962Z,12.00
2022-10-27T21:38:47.804Z,12.00
2022-10-27T21:41:17.945Z,12.10
2022-10-27T21:43:46.899Z,12.10
2022-10-27T21:46:15.744Z,12.00
2022-10-27T21:48:42.954Z,12.00
2022-10-27T21:51:13.726Z,12.00
2022-10-27T21:53:41.379Z,12.00
2022-10-27T21:56:10.221Z,12.00
2022-10-27T21:58:38.110Z,12.00
2022-10-27T22:01:13.195Z,12.00
2022-10-27T22:03:41.371Z,12.00
2022-10-27T22:06:14.240Z,12.00
2022-10-27T22:08:41.114Z,12.00
2022-10-27T22:11:12.670Z,11.90
2022-10-27T22:13:39.856Z,11.90
2022-10-27T22:16:09.417Z,12.00
2022-10-27T22:18:37.245Z,12.00
2022-10-27T22:21:05.696Z,12.00
2022-10-27T22:23:34.048Z,11.90
2022-10-27T22:26:08.204Z,11.90
2022-10-27T22:28:35.588Z,11.90
2022-10-27T22:31:11.621Z,11.90
2022-10-27T22:33:43.122Z,11.90
2022-10-27T22:36:15.476Z,12.00
2022-10-27T22:38:42.818Z,11.90
2022-10-27T22:41:14.982Z,12.00
2022-10-27T22:43:42.311Z,12.00
2022-10-27T22:46:22.651Z,12.00
2022-10-27T22:48:50.011Z,11.90
2022-10-27T22:51:19.152Z,12.00
2022-10-27T22:53:46.931Z,12.00
2022-10-27T22:56:15.032Z,11.90
2022-10-27T22:58:42.686Z,11.90
2022-10-27T23:01:12.489Z,12.00
2022-10-27T23:03:40.176Z,11.90
2022-10-27T23:06:08.520Z,11.90
2022-10-27T23:08:35.492Z,12.00
2022-10-27T23:11:07.060Z,11.90
2022-10-27T23:13:37.446Z,12.00
2022-10-27T23:16:08.717Z,11.90
2022-10-27T23:18:37.583Z,12.00
2022-10-27T23:21:06.112Z,12.00
2022-10-27T23:23:34.212Z,12.00
2022-10-27T23:26:02.069Z,12.00
2022-10-27T23:28:29.110Z,12.00
2022-10-27T23:30:56.019Z,12.00
2022-10-27T23:33:23.025Z,12.00
2022-10-27T23:36:00.896Z,12.00
2022-10-27T23:38:28.609Z,12.00
2022-10-27T23:40:57.807Z,12.00
2022-10-27T23:43:26.965Z,12.00
2022-10-27T23:46:07.894Z,12.00
2022-10-27T23:48:36.055Z,12.10
2022-10-27T23:51:03.672Z,12.10
2022-10-27T23:53:31.117Z,12.10
2022-10-27T23:56:00.314Z,12.10
2022-10-27T23:58:35.213Z,12.10
